createdAt,value
2017-08-03T00:02:10.881Z,5.23
2017-08-03T00:04:37.232Z,4.67
2017-08-03T00:07:03.631Z,5.00
2017-08-03T00:09:30.048Z,6.33
2017-08-03T00:11:56.403Z,5.43
2017-08-03T00:14:22.718Z,5.73
2017-08-03T00:16:49.811Z,5.20
2017-08-03T00:19:16.208Z,4.93
2017-08-03T00:21:42.567Z,5.90
2017-08-03T00:24:08.963Z,5.27
2017-08-03T00:26:35.338Z,6.40
2017-08-03T00:29:01.715Z,5.03
2017-08-03T00:31:28.170Z,6.40
2017-08-03T00:33:54.583Z,5.83
2017-08-03T00:36:21.692Z,5.57
2017-08-03T00:38:48.061Z,6.10
2017-08-03T00:41:14.443Z,6.53
2017-08-03T00:43:41.533Z,7.10
2017-08-03T00:46:07.963Z,6.03
2017-08-03T00:48:35.079Z,5.40
2017-08-03T00:51:01.479Z,7.67
2017-08-03T00:53:27.855Z,6.70
2017-08-03T00:55:54.239Z,6.40
2017-08-03T00:58:20.621Z,6.10
2017-08-03T01:00:47.015Z,5.87
2017-08-03T01:03:13.421Z,6.30
2017-08-03T01:05:39.766Z,6.30
2017-08-03T01:08:06.163Z,7.53
2017-08-03T01:10:32.559Z,6.20
2017-08-03T01:12:59.678Z,6.57
2017-08-03T01:15:26.067Z,6.40
2017-08-03T01:17:52.751Z,7.10
2017-08-03T01:20:19.818Z,6.80
2017-08-03T01:22:46.210Z,7.00
2017-08-03T01:25:12.610Z,7.37
2017-08-03T01:27:39.015Z,6.77
2017-08-03T01:30:06.479Z,7.37
2017-08-03T01:32:32.860Z,7.07
2017-08-03T01:34:59.230Z,7.10
2017-08-03T01:37:25.615Z,6.73
2017-08-03T01:39:52.019Z,6.67
2017-08-03T01:42:18.400Z,6.97
2017-08-03T01:44:44.796Z,7.90
2017-08-03T01:47:11.235Z,7.50
2017-08-03T01:49:37.641Z,7.30
2017-08-03T01:52:04.075Z,7.60
2017-08-03T01:54:30.491Z,7.27
2017-08-03T01:56:56.855Z,8.60
2017-08-03T01:59:24.047Z,9.70
2017-08-03T02:01:51.251Z,7.70
2017-08-03T02:04:17.622Z,7.53
2017-08-03T02:06:44.007Z,7.67
2017-08-03T02:09:11.179Z,8.23
2017-08-03T02:11:37.655Z,8.60
2017-08-03T02:14:04.024Z,8.00
2017-08-03T02:16:30.413Z,7.80
2017-08-03T02:18:57.564Z,8.77
2017-08-03T02:21:24.999Z,7.87
2017-08-03T02:23:51.499Z,8.80
2017-08-03T02:26:17.907Z,9.90
2017-08-03T02:28:44.346Z,9.27
2017-08-03T02:31:10.740Z,8.50
2017-08-03T02:33:37.134Z,8.40
2017-08-03T02:36:03.587Z,9.10
2017-08-03T02:38:30.681Z,8.40
2017-08-03T02:40:57.047Z,8.97
2017-08-03T02:43:24.162Z,7.67
2017-08-03T02:45:50.567Z,8.67
2017-08-03T02:48:16.931Z,7.87
2017-08-03T02:50:44.034Z,8.57
2017-08-03T02:53:11.183Z,8.57
2017-08-03T02:55:37.585Z,8.60
2017-08-03T02:58:03.973Z,8.27
2017-08-03T03:00:30.376Z,8.50
2017-08-03T03:02:56.808Z,10.03
2017-08-03T03:05:23.219Z,9.13
2017-08-03T03:07:49.594Z,9.60
2017-08-03T03:10:15.979Z,10.87
2017-08-03T03:12:42.387Z,10.00
2017-08-03T03:15:08.774Z,9.07
2017-08-03T03:17:35.139Z,8.90
2017-08-03T03:20:01.523Z,8.60
2017-08-03T03:22:27.947Z,8.30
2017-08-03T03:24:54.343Z,8.83
2017-08-03T03:27:21.135Z,9.57
2017-08-03T03:29:47.527Z,9.07
2017-08-03T03:32:14.639Z,9.13
2017-08-03T03:34:41.024Z,9.00
2017-08-03T03:37:07.420Z,10.30
2017-08-03T03:39:33.813Z,9.90
2017-08-03T03:42:00.211Z,9.73
2017-08-03T03:44:26.575Z,10.67
2017-08-03T03:46:52.919Z,8.57
2017-08-03T03:49:19.340Z,10.73
2017-08-03T03:51:45.707Z,9.30
2017-08-03T03:54:12.843Z,8.13
2017-08-03T03:56:39.247Z,10.77
2017-08-03T03:59:06.356Z,9.87
2017-08-03T04:01:32.767Z,9.50
2017-08-03T04:03:59.164Z,8.60
2017-08-03T04:06:26.604Z,10.10
2017-08-03T04:08:52.984Z,9.50
2017-08-03T04:11:20.115Z,9.30
2017-08-03T04:13:46.554Z,11.00
2017-08-03T04:16:12.920Z,9.37
2017-08-03T04:18:39.298Z,9.63
2017-08-03T04:21:05.735Z,10.03
2017-08-03T04:23:32.099Z,10.70
2017-08-03T04:25:59.294Z,10.80
2017-08-03T04:28:25.687Z,9.90
2017-08-03T04:30:52.072Z,10.20
2017-08-03T04:33:19.205Z,9.90
2017-08-03T04:35:45.564Z,9.37
2017-08-03T04:38:11.983Z,9.27
2017-08-03T04:40:38.386Z,9.20
2017-08-03T04:43:04.773Z,9.40
2017-08-03T04:45:31.884Z,9.53
2017-08-03T04:47:58.263Z,10.27
2017-08-03T04:50:24.635Z,10.30
2017-08-03T04:52:50.996Z,10.03
2017-08-03T04:55:17.411Z,10.43
2017-08-03T04:57:43.779Z,10.30
2017-08-03T05:00:10.899Z,9.40
2017-08-03T05:02:38.021Z,9.73
2017-08-03T05:05:05.151Z,10.23
2017-08-03T05:07:31.524Z,10.10
2017-08-03T05:09:57.936Z,9.77
2017-08-03T05:12:24.363Z,9.80
2017-08-03T05:14:50.791Z,8.00
2017-08-03T05:17:17.215Z,10.33
2017-08-03T05:19:43.631Z,9.47
2017-08-03T05:22:09.998Z,8.40
2017-08-03T05:24:36.378Z,10.40
2017-08-03T05:27:02.845Z,9.13
2017-08-03T05:29:30.323Z,9.27
2017-08-03T05:31:56.768Z,9.50
2017-08-03T05:34:23.183Z,8.87
2017-08-03T05:36:49.558Z,8.90
2017-08-03T05:39:15.955Z,8.83
2017-08-03T05:41:42.381Z,9.30
2017-08-03T05:44:08.736Z,9.57
2017-08-03T05:46:35.110Z,9.60
2017-08-03T05:49:01.536Z,9.27
2017-08-03T05:51:28.992Z,9.27
2017-08-03T05:53:55.408Z,8.53
2017-08-03T05:56:21.808Z,10.80
2017-08-03T05:58:48.183Z,9.83
2017-08-03T06:01:14.544Z,9.47
2017-08-03T06:03:40.943Z,9.50
2017-08-03T06:06:07.334Z,10.63
2017-08-03T06:08:33.803Z,9.80
2017-08-03T06:11:00.223Z,10.67
2017-08-03T06:13:26.629Z,10.47
2017-08-03T06:15:52.955Z,10.60
2017-08-03T06:18:19.387Z,11.03
2017-08-03T06:20:45.791Z,10.27
2017-08-03T06:23:12.188Z,10.93
2017-08-03T06:25:38.624Z,11.07
2017-08-03T06:28:05.049Z,11.60
2017-08-03T06:30:31.526Z,10.30
2017-08-03T06:32:58.976Z,10.23
2017-08-03T06:35:25.342Z,10.00
2017-08-03T06:37:51.679Z,11.33
2017-08-03T06:40:18.099Z,10.50
2017-08-03T06:42:45.238Z,11.63
2017-08-03T06:45:11.623Z,11.80
2017-08-03T06:47:38.759Z,10.20
2017-08-03T06:50:05.149Z,12.03
2017-08-03T06:52:31.556Z,11.50
2017-08-03T06:54:58.049Z,11.50
2017-08-03T06:57:24.487Z,11.40
2017-08-03T06:59:50.871Z,11.37
2017-08-03T07:02:17.610Z,10.40
2017-08-03T07:04:44.023Z,12.70
2017-08-03T07:07:10.402Z,11.77
2017-08-03T07:09:36.759Z,12.67
2017-08-03T07:12:03.179Z,11.20
2017-08-03T07:14:29.551Z,12.40
2017-08-03T07:16:56.957Z,12.37
2017-08-03T07:19:23.387Z,12.97
2017-08-03T07:21:49.730Z,12.93
2017-08-03T07:24:16.155Z,12.83
2017-08-03T07:26:42.523Z,11.93
2017-08-03T07:29:08.891Z,13.73
2017-08-03T07:31:35.243Z,11.50
2017-08-03T07:34:01.603Z,11.50
2017-08-03T07:36:27.975Z,13.00
2017-08-03T07:38:54.380Z,12.30
2017-08-03T07:41:20.815Z,10.93
2017-08-03T07:43:47.152Z,11.07
2017-08-03T07:46:13.547Z,10.80
2017-08-03T07:48:39.919Z,11.13
2017-08-03T07:51:07.051Z,10.03
2017-08-03T07:53:33.443Z,10.63
2017-08-03T07:55:59.831Z,10.93
2017-08-03T07:58:26.215Z,11.27
2017-08-03T08:00:52.579Z,9.83
2017-08-03T08:03:18.991Z,10.37
2017-08-03T08:05:45.378Z,10.47
2017-08-03T08:08:11.739Z,10.83
2017-08-03T08:10:38.099Z,12.30
2017-08-03T08:13:04.431Z,11.53
2017-08-03T08:15:30.843Z,10.53
2017-08-03T08:17:57.219Z,10.87
2017-08-03T08:20:23.549Z,11.80
2017-08-03T08:22:49.922Z,10.77
2017-08-03T08:25:16.308Z,12.00
2017-08-03T08:27:42.731Z,10.70
2017-08-03T08:30:10.123Z,11.77
2017-08-03T08:32:37.239Z,10.73
2017-08-03T08:35:03.589Z,11.50
2017-08-03T08:37:29.943Z,11.67
2017-08-03T08:39:56.384Z,9.00
2017-08-03T08:42:22.727Z,10.43
2017-08-03T08:44:49.115Z,10.87
2017-08-03T08:47:15.493Z,10.63
2017-08-03T08:49:41.859Z,10.27
2017-08-03T08:52:08.964Z,11.13
2017-08-03T08:54:35.311Z,11.27
2017-08-03T08:57:02.432Z,10.37
2017-08-03T08:59:29.547Z,10.30
2017-08-03T09:01:55.927Z,11.43
2017-08-03T09:04:22.267Z,12.37
2017-08-03T09:06:48.615Z,13.77
2017-08-03T09:09:15.014Z,13.13
2017-08-03T09:11:41.391Z,12.93
2017-08-03T09:14:07.747Z,13.13
2017-08-03T09:16:34.087Z,13.27
2017-08-03T09:19:00.462Z,13.00
2017-08-03T09:21:26.879Z,12.63
2017-08-03T09:23:53.260Z,12.10
2017-08-03T09:26:19.631Z,14.63
2017-08-03T09:28:46.034Z,14.10
2017-08-03T09:31:12.486Z,13.87
2017-08-03T09:33:39.692Z,12.77
2017-08-03T09:36:06.057Z,11.40
2017-08-03T09:38:33.164Z,12.40
2017-08-03T09:41:00.307Z,11.90
2017-08-03T09:43:26.666Z,10.90
2017-08-03T09:45:53.003Z,10.87
2017-08-03T09:48:19.355Z,11.60
2017-08-03T09:50:45.750Z,11.90
2017-08-03T09:53:12.051Z,11.47
2017-08-03T09:55:38.306Z,12.13
2017-08-03T09:58:05.330Z,10.80
2017-08-03T10:00:31.622Z,11.30
2017-08-03T10:02:57.882Z,11.90
2017-08-03T10:05:24.190Z,11.30
2017-08-03T10:07:50.486Z,11.50
2017-08-03T10:10:16.774Z,11.13
2017-08-03T10:12:43.054Z,10.27
2017-08-03T10:15:09.347Z,11.47
2017-08-03T10:17:36.734Z,9.00
2017-08-03T10:20:03.017Z,10.60
2017-08-03T10:22:29.293Z,8.90
2017-08-03T10:24:55.554Z,8.73
2017-08-03T10:27:21.943Z,8.40
2017-08-03T10:29:48.218Z,9.97
2017-08-03T10:32:14.490Z,9.60
2017-08-03T10:34:40.817Z,8.20
2017-08-03T10:37:07.090Z,8.50
2017-08-03T10:39:33.330Z,7.93
2017-08-03T10:41:59.586Z,8.60
2017-08-03T10:44:25.870Z,8.83
2017-08-03T10:46:52.130Z,7.80
2017-08-03T10:49:19.150Z,8.40
2017-08-03T10:51:45.423Z,7.73
2017-08-03T10:54:11.693Z,7.87
2017-08-03T10:56:38.730Z,7.77
2017-08-03T10:59:05.010Z,7.50
2017-08-03T11:01:31.284Z,7.97
2017-08-03T11:03:57.581Z,8.40
2017-08-03T11:06:24.113Z,7.40
2017-08-03T11:08:52.206Z,8.10
2017-08-03T11:11:18.499Z,7.80
2017-08-03T11:13:44.773Z,6.40
2017-08-03T11:16:11.035Z,7.07
2017-08-03T11:18:37.310Z,7.33
2017-08-03T11:21:03.593Z,7.10
2017-08-03T11:23:29.858Z,7.27
2017-08-03T11:25:56.130Z,7.33
2017-08-03T11:28:22.446Z,9.40
2017-08-03T11:30:48.706Z,7.57
2017-08-03T11:33:15.023Z,7.73
2017-08-03T11:35:41.298Z,7.10
2017-08-03T11:38:07.555Z,7.10
2017-08-03T11:40:34.914Z,7.27
2017-08-03T11:43:01.170Z,6.57
2017-08-03T11:45:27.422Z,6.20
2017-08-03T11:47:53.718Z,5.57
2017-08-03T11:50:19.983Z,6.20
2017-08-03T11:52:46.258Z,6.00
2017-08-03T11:55:12.554Z,5.27
2017-08-03T11:57:38.810Z,5.33
2017-08-03T12:00:05.074Z,3.77
2017-08-03T12:02:31.406Z,3.70
2017-08-03T12:04:57.667Z,3.20
2017-08-03T12:07:23.926Z,3.20
2017-08-03T12:09:50.218Z,2.47
2017-08-03T12:12:16.475Z,2.57
2017-08-03T12:14:42.742Z,2.57
2017-08-03T12:17:09.067Z,2.70
2017-08-03T12:19:36.066Z,2.20
2017-08-03T12:22:02.344Z,2.60
2017-08-03T12:24:28.634Z,2.50
2017-08-03T12:26:55.090Z,2.50
2017-08-03T12:29:21.356Z,2.33
2017-08-03T12:31:47.650Z,2.87
2017-08-03T12:34:13.929Z,2.60
2017-08-03T12:36:40.190Z,2.70
2017-08-03T12:39:06.490Z,2.20
2017-08-03T12:41:32.736Z,1.97
2017-08-03T12:43:58.994Z,2.37
2017-08-03T12:46:25.294Z,2.13
2017-08-03T12:48:51.554Z,2.10
2017-08-03T12:51:18.842Z,2.20
2017-08-03T12:53:45.147Z,2.17
2017-08-03T12:56:11.398Z,1.40
2017-08-03T12:58:37.655Z,2.20
2017-08-03T13:01:03.958Z,1.67
2017-08-03T13:03:30.198Z,1.73
2017-08-03T13:05:56.442Z,1.60
2017-08-03T13:08:22.726Z,1.73
2017-08-03T13:10:48.996Z,1.87
2017-08-03T13:13:15.255Z,1.90
2017-08-03T13:15:42.629Z,2.40
2017-08-03T13:18:08.878Z,1.70
2017-08-03T13:20:35.134Z,1.60
2017-08-03T13:23:01.423Z,1.60
2017-08-03T13:25:27.674Z,1.40
2017-08-03T13:27:53.922Z,2.20
2017-08-03T13:30:20.236Z,2.00
2017-08-03T13:32:47.235Z,2.20
2017-08-03T13:35:13.523Z,2.17
2017-08-03T13:37:39.807Z,1.67
2017-08-03T13:40:06.805Z,1.40
2017-08-03T13:42:33.119Z,1.83
2017-08-03T13:44:59.430Z,1.47
2017-08-03T13:47:25.703Z,1.90
2017-08-03T13:49:51.970Z,1.47
2017-08-03T13:52:18.278Z,1.23
2017-08-03T13:54:44.542Z,1.13
2017-08-03T13:57:10.795Z,1.00
2017-08-03T13:59:37.098Z,1.73
2017-08-03T14:02:03.361Z,1.30
2017-08-03T14:04:30.358Z,1.10
2017-08-03T14:06:57.406Z,1.00
2017-08-03T14:09:23.647Z,1.00
2017-08-03T14:11:49.938Z,0.80
2017-08-03T14:14:16.206Z,2.00
2017-08-03T14:16:42.462Z,1.20
2017-08-03T14:19:09.446Z,1.40
2017-08-03T14:21:36.790Z,1.00
2017-08-03T14:24:03.086Z,1.07
2017-08-03T14:26:29.345Z,1.07
2017-08-03T14:28:56.380Z,1.63
2017-08-03T14:31:22.646Z,1.00
2017-08-03T14:33:48.910Z,1.03
2017-08-03T14:36:15.274Z,1.50
2017-08-03T14:38:41.518Z,1.20
2017-08-03T14:41:07.772Z,1.10
2017-08-03T14:43:34.062Z,1.90
2017-08-03T14:46:00.326Z,1.20
2017-08-03T14:48:26.581Z,1.37
2017-08-03T14:50:53.642Z,1.10
2017-08-03T14:53:20.627Z,1.00
2017-08-03T14:55:46.896Z,1.20
2017-08-03T14:58:13.206Z,1.13
2017-08-03T15:00:40.202Z,1.10
2017-08-03T15:03:06.459Z,1.00
2017-08-03T15:05:32.764Z,1.80
2017-08-03T15:07:59.011Z,1.10
2017-08-03T15:10:26.322Z,1.60
2017-08-03T15:12:52.626Z,1.13
2017-08-03T15:15:18.880Z,1.40
2017-08-03T15:17:45.163Z,1.20
2017-08-03T15:20:11.453Z,1.10
2017-08-03T15:22:37.706Z,1.70
2017-08-03T15:25:03.985Z,0.70
2017-08-03T15:27:30.286Z,1.03
2017-08-03T15:29:56.530Z,0.90
2017-08-03T15:32:22.779Z,1.07
2017-08-03T15:34:49.106Z,1.47
2017-08-03T15:37:15.378Z,0.90
2017-08-03T15:39:41.666Z,1.20
2017-08-03T15:42:07.946Z,1.00
2017-08-03T15:44:34.203Z,0.87
2017-08-03T15:47:00.451Z,0.87
2017-08-03T15:49:26.729Z,0.90
2017-08-03T15:51:52.974Z,1.13
2017-08-03T15:54:19.230Z,1.20
2017-08-03T15:56:45.515Z,0.90
2017-08-03T15:59:11.765Z,1.47
2017-08-03T16:01:38.047Z,1.07
2017-08-03T16:04:04.339Z,1.10
2017-08-03T16:06:30.613Z,1.10
2017-08-03T16:08:57.612Z,1.20
2017-08-03T16:11:25.659Z,1.27
2017-08-03T16:13:51.920Z,1.17
2017-08-03T16:16:19.998Z,1.17
2017-08-03T16:18:46.302Z,1.53
2017-08-03T16:21:12.566Z,1.33
2017-08-03T16:23:38.850Z,1.00
2017-08-03T16:26:05.185Z,1.00
2017-08-03T16:28:31.447Z,1.40
2017-08-03T16:30:57.683Z,1.23
2017-08-03T16:33:23.983Z,1.10
2017-08-03T16:35:50.246Z,1.13
2017-08-03T16:38:16.535Z,1.33
2017-08-03T16:40:42.832Z,1.30
2017-08-03T16:43:09.090Z,1.13
2017-08-03T16:45:35.371Z,1.20
2017-08-03T16:48:01.659Z,1.13
2017-08-03T16:50:27.971Z,1.50
2017-08-03T16:52:54.218Z,1.17
2017-08-03T16:55:20.536Z,1.77
2017-08-03T16:57:46.787Z,1.30
2017-08-03T17:00:13.042Z,1.23
2017-08-03T17:02:39.359Z,1.20
2017-08-03T17:05:05.614Z,1.40
2017-08-03T17:07:31.883Z,1.20
2017-08-03T17:09:58.197Z,1.10
2017-08-03T17:12:24.450Z,1.30
2017-08-03T17:14:50.740Z,1.33
2017-08-03T17:17:18.018Z,1.13
2017-08-03T17:19:44.277Z,0.97
2017-08-03T17:22:10.546Z,1.50
2017-08-03T17:24:36.850Z,1.10
2017-08-03T17:27:03.114Z,1.40
2017-08-03T17:29:29.358Z,1.03
2017-08-03T17:31:55.638Z,1.30
2017-08-03T17:34:21.883Z,1.00
2017-08-03T17:36:48.138Z,0.70
2017-08-03T17:39:14.515Z,0.90
2017-08-03T17:41:40.758Z,1.23
2017-08-03T17:44:07.033Z,1.23
2017-08-03T17:46:33.343Z,1.03
2017-08-03T17:48:59.620Z,1.00
2017-08-03T17:51:25.899Z,1.23
2017-08-03T17:53:52.196Z,0.90
2017-08-03T17:56:18.443Z,1.30
2017-08-03T17:58:45.687Z,1.07
2017-08-03T18:01:12.318Z,0.80
2017-08-03T18:03:39.302Z,1.00
2017-08-03T18:06:05.578Z,1.10
2017-08-03T18:08:31.874Z,0.97
2017-08-03T18:10:58.878Z,1.43
2017-08-03T18:13:25.150Z,1.00
2017-08-03T18:15:51.451Z,1.47
2017-08-03T18:18:17.701Z,1.20
2017-08-03T18:20:43.972Z,0.93
2017-08-03T18:23:10.289Z,0.90
2017-08-03T18:25:36.545Z,0.90
2017-08-03T18:28:02.807Z,0.90
2017-08-03T18:30:29.294Z,1.60
2017-08-03T18:32:55.614Z,1.00
2017-08-03T18:35:22.864Z,1.20
2017-08-03T18:37:49.349Z,1.00
2017-08-03T18:40:16.153Z,1.13
2017-08-03T18:42:43.053Z,1.03
2017-08-03T18:45:10.156Z,1.30
2017-08-03T18:47:37.099Z,2.03
2017-08-03T18:50:04.802Z,1.83
2017-08-03T18:52:32.046Z,1.10
2017-08-03T18:54:59.823Z,1.80
2017-08-03T18:57:26.799Z,1.03
2017-08-03T18:59:53.906Z,1.70
2017-08-03T19:02:20.833Z,0.80
2017-08-03T19:04:48.150Z,1.17
2017-08-03T19:07:15.798Z,1.20
2017-08-03T19:09:43.309Z,1.20
2017-08-03T19:12:10.720Z,0.90
2017-08-03T19:14:38.177Z,1.00
2017-08-03T19:17:06.541Z,1.10
2017-08-03T19:19:34.054Z,1.80
2017-08-03T19:22:01.995Z,1.90
2017-08-03T19:24:29.687Z,1.80
2017-08-03T19:26:58.065Z,1.40
2017-08-03T19:29:25.826Z,1.10
2017-08-03T19:31:53.506Z,1.30
2017-08-03T19:34:21.256Z,1.63
2017-08-03T19:36:49.145Z,1.13
2017-08-03T19:39:16.893Z,1.20
2017-08-03T19:41:44.692Z,1.07
2017-08-03T19:44:12.527Z,1.40
2017-08-03T19:46:40.206Z,1.50
2017-08-03T19:49:07.915Z,1.30
2017-08-03T19:51:35.827Z,1.20
2017-08-03T19:54:03.532Z,1.03
2017-08-03T19:56:31.305Z,1.10
2017-08-03T19:58:59.239Z,1.13
2017-08-03T20:01:26.980Z,1.00
2017-08-03T20:03:54.694Z,1.10
2017-08-03T20:06:24.679Z,1.17
2017-08-03T20:09:04.100Z,0.80
2017-08-03T20:11:32.135Z,1.10
2017-08-03T20:13:59.857Z,0.97
2017-08-03T20:16:27.689Z,0.90
2017-08-03T20:18:55.652Z,1.10
2017-08-03T20:21:23.502Z,1.37
2017-08-03T20:23:51.293Z,1.13
2017-08-03T20:26:19.951Z,1.30
2017-08-03T20:28:48.671Z,1.10
2017-08-03T20:31:16.370Z,1.57
2017-08-03T20:33:44.177Z,1.20
2017-08-03T20:36:11.809Z,1.20
2017-08-03T20:38:40.288Z,1.23
2017-08-03T20:41:08.197Z,1.37
2017-08-03T20:43:36.046Z,1.50
2017-08-03T20:46:03.629Z,1.43
2017-08-03T20:48:31.566Z,1.70
2017-08-03T20:50:59.261Z,1.63
2017-08-03T20:53:26.918Z,1.70
2017-08-03T20:55:54.863Z,1.90
2017-08-03T20:58:22.639Z,1.97
2017-08-03T21:00:49.671Z,1.83
2017-08-03T21:03:16.871Z,1.77
2017-08-03T21:05:43.743Z,1.53
2017-08-03T21:08:11.366Z,1.57
2017-08-03T21:10:37.843Z,1.00
2017-08-03T21:13:04.122Z,2.00
2017-08-03T21:15:30.531Z,1.30
2017-08-03T21:17:56.960Z,1.60
2017-08-03T21:20:23.325Z,1.60
2017-08-03T21:22:49.607Z,1.90
2017-08-03T21:25:16.856Z,1.50
2017-08-03T21:27:43.192Z,1.77
2017-08-03T21:30:09.592Z,1.43
2017-08-03T21:32:35.918Z,1.70
2017-08-03T21:35:02.234Z,1.50
2017-08-03T21:37:28.562Z,1.50
2017-08-03T21:39:54.867Z,1.37
2017-08-03T21:42:21.167Z,1.63
2017-08-03T21:44:47.435Z,1.60
2017-08-03T21:47:15.107Z,1.90
2017-08-03T21:49:43.210Z,1.80
2017-08-03T21:52:09.494Z,1.40
2017-08-03T21:54:35.799Z,1.70
2017-08-03T21:57:02.802Z,1.50
2017-08-03T21:59:29.066Z,1.90
2017-08-03T22:01:55.391Z,2.17
2017-08-03T22:04:21.656Z,2.40
2017-08-03T22:06:47.926Z,2.03
2017-08-03T22:09:14.234Z,2.10
2017-08-03T22:11:40.494Z,1.70
2017-08-03T22:14:06.762Z,2.20
2017-08-03T22:16:33.062Z,1.90
2017-08-03T22:18:59.338Z,1.90
2017-08-03T22:21:25.574Z,1.90
2017-08-03T22:23:51.870Z,1.77
2017-08-03T22:26:18.130Z,2.30
2017-08-03T22:28:44.386Z,1.90
2017-08-03T22:31:11.567Z,1.80
2017-08-03T22:33:37.810Z,1.90
2017-08-03T22:36:04.078Z,1.83
2017-08-03T22:38:30.362Z,1.77
2017-08-03T22:40:56.630Z,1.90
2017-08-03T22:43:22.898Z,1.90
2017-08-03T22:45:49.171Z,1.63
2017-08-03T22:48:15.434Z,1.43
2017-08-03T22:50:41.695Z,1.97
2017-08-03T22:53:07.986Z,1.50
2017-08-03T22:55:34.266Z,1.33
2017-08-03T22:58:01.286Z,1.57
2017-08-03T23:00:27.638Z,2.17
2017-08-03T23:02:53.898Z,2.13
2017-08-03T23:05:20.158Z,1.80
2017-08-03T23:07:46.446Z,1.77
2017-08-03T23:10:12.710Z,1.73
2017-08-03T23:12:38.979Z,1.47
2017-08-03T23:15:06.375Z,1.47
2017-08-03T23:17:32.631Z,1.20
2017-08-03T23:19:59.636Z,4.37
2017-08-03T23:22:25.922Z,2.43
2017-08-03T23:24:52.182Z,1.50
2017-08-03T23:27:18.435Z,1.70
2017-08-03T23:29:44.711Z,1.60
2017-08-03T23:32:10.967Z,1.30
2017-08-03T23:34:37.257Z,1.73
2017-08-03T23:37:03.531Z,1.30
2017-08-03T23:39:29.794Z,1.77
2017-08-03T23:41:56.097Z,1.93
2017-08-03T23:44:22.379Z,1.90
2017-08-03T23:46:48.638Z,1.90
2017-08-03T23:49:14.906Z,1.73
2017-08-03T23:51:41.942Z,2.07
2017-08-03T23:54:08.226Z,1.73
2017-08-03T23:56:34.490Z,2.10
2017-08-03T23:59:00.770Z,2.20
